sensor_id;sensor_type;location;lat;lon;timestamp;P1;durP1;ratioP1;P2;durP2;ratioP2
65831;SDS011;52593;42.648;23.332;2023-04-01T00:00:16;13.43;;;5.97;;
65831;SDS011;52593;42.648;23.332;2023-04-01T00:02:42;18.75;;;6.07;;
65831;SDS011;52593;42.648;23.332;2023-04-01T00:05:07;13.63;;;4.90;;
65831;SDS011;52593;42.648;23.332;2023-04-01T00:07:35;13.93;;;5.43;;
65831;SDS011;52593;42.648;23.332;2023-04-01T00:10:01;12.68;;;5.68;;
65831;SDS011;52593;42.648;23.332;2023-04-01T00:12:27;13.30;;;5.60;;
65831;SDS011;52593;42.648;23.332;2023-04-01T00:14:53;15.10;;;5.73;;
65831;SDS011;52593;42.648;23.332;2023-04-01T00:17:18;13.87;;;5.63;;
65831;SDS011;52593;42.648;23.332;2023-04-01T00:19:43;15.27;;;6.60;;
65831;SDS011;52593;42.648;23.332;2023-04-01T00:22:09;16.85;;;7.03;;
65831;SDS011;52593;42.648;23.332;2023-04-01T00:24:36;17.37;;;7.00;;
65831;SDS011;52593;42.648;23.332;2023-04-01T00:27:03;19.27;;;7.25;;
65831;SDS011;52593;42.648;23.332;2023-04-01T00:29:28;15.77;;;7.00;;
65831;SDS011;52593;42.648;23.332;2023-04-01T00:31:56;16.38;;;6.78;;
65831;SDS011;52593;42.648;23.332;2023-04-01T00:34:22;19.90;;;6.70;;
65831;SDS011;52593;42.648;23.332;2023-04-01T00:36:48;17.60;;;6.57;;
65831;SDS011;52593;42.648;23.332;2023-04-01T00:39:15;18.75;;;7.30;;
65831;SDS011;52593;42.648;23.332;2023-04-01T00:41:40;20.20;;;7.68;;
65831;SDS011;52593;42.648;23.332;2023-04-01T00:44:16;19.50;;;7.53;;
65831;SDS011;52593;42.648;23.332;2023-04-01T00:46:44;18.38;;;7.63;;
65831;SDS011;52593;42.648;23.332;2023-04-01T00:49:10;19.17;;;7.13;;
65831;SDS011;52593;42.648;23.332;2023-04-01T00:51:35;17.10;;;6.87;;
65831;SDS011;52593;42.648;23.332;2023-04-01T00:54:03;15.50;;;6.70;;
65831;SDS011;52593;42.648;23.332;2023-04-01T00:56:32;16.63;;;6.75;;
65831;SDS011;52593;42.648;23.332;2023-04-01T00:59:02;17.23;;;6.93;;
65831;SDS011;52593;42.648;23.332;2023-04-01T01:01:33;14.73;;;6.50;;
65831;SDS011;52593;42.648;23.332;2023-04-01T01:04:00;14.10;;;6.63;;
65831;SDS011;52593;42.648;23.332;2023-04-01T01:15:02;12.70;;;5.38;;
65831;SDS011;52593;42.648;23.332;2023-04-01T01:37:16;13.82;;;5.20;;
65831;SDS011;52593;42.648;23.332;2023-04-01T01:39:44;12.75;;;4.70;;
65831;SDS011;52593;42.648;23.332;2023-04-01T01:42:18;10.88;;;4.45;;
65831;SDS011;52593;42.648;23.332;2023-04-01T01:44:46;11.77;;;4.37;;
65831;SDS011;52593;42.648;23.332;2023-04-01T01:47:14;10.77;;;4.60;;
65831;SDS011;52593;42.648;23.332;2023-04-01T01:49:42;12.40;;;4.63;;
65831;SDS011;52593;42.648;23.332;2023-04-01T01:52:08;10.68;;;4.30;;
65831;SDS011;52593;42.648;23.332;2023-04-01T01:54:34;10.55;;;4.10;;
65831;SDS011;52593;42.648;23.332;2023-04-01T01:57:04;9.07;;;4.03;;
65831;SDS011;52593;42.648;23.332;2023-04-01T01:59:35;11.02;;;3.80;;
65831;SDS011;52593;42.648;23.332;2023-04-01T02:02:05;8.37;;;3.73;;
65831;SDS011;52593;42.648;23.332;2023-04-01T02:04:34;8.48;;;3.30;;
65831;SDS011;52593;42.648;23.332;2023-04-01T02:07:02;11.20;;;3.83;;
65831;SDS011;52593;42.648;23.332;2023-04-01T02:09:32;14.30;;;4.10;;
65831;SDS011;52593;42.648;23.332;2023-04-01T02:12:00;11.95;;;3.42;;
65831;SDS011;52593;42.648;23.332;2023-04-01T02:14:31;15.03;;;4.27;;
65831;SDS011;52593;42.648;23.332;2023-04-01T02:17:06;10.15;;;3.40;;
65831;SDS011;52593;42.648;23.332;2023-04-01T02:19:38;10.35;;;3.53;;
65831;SDS011;52593;42.648;23.332;2023-04-01T02:22:07;9.52;;;3.40;;
65831;SDS011;52593;42.648;23.332;2023-04-01T02:24:37;8.80;;;3.45;;
65831;SDS011;52593;42.648;23.332;2023-04-01T02:27:05;11.40;;;3.37;;
65831;SDS011;52593;42.648;23.332;2023-04-01T02:29:31;11.35;;;3.35;;
65831;SDS011;52593;42.648;23.332;2023-04-01T02:31:57;11.65;;;3.47;;
65831;SDS011;52593;42.648;23.332;2023-04-01T02:34:24;10.43;;;3.53;;
65831;SDS011;52593;42.648;23.332;2023-04-01T02:36:50;10.75;;;3.70;;
65831;SDS011;52593;42.648;23.332;2023-04-01T02:39:16;8.57;;;3.13;;
65831;SDS011;52593;42.648;23.332;2023-04-01T02:41:43;12.73;;;3.70;;
65831;SDS011;52593;42.648;23.332;2023-04-01T02:44:10;11.00;;;3.80;;
65831;SDS011;52593;42.648;23.332;2023-04-01T02:46:37;10.70;;;3.47;;
65831;SDS011;52593;42.648;23.332;2023-04-01T02:49:02;11.13;;;3.85;;
65831;SDS011;52593;42.648;23.332;2023-04-01T02:51:28;9.93;;;3.93;;
65831;SDS011;52593;42.648;23.332;2023-04-01T02:53:54;9.68;;;3.38;;
65831;SDS011;52593;42.648;23.332;2023-04-01T02:56:20;10.90;;;3.47;;
65831;SDS011;52593;42.648;23.332;2023-04-01T02:58:46;10.43;;;3.60;;
65831;SDS011;52593;42.648;23.332;2023-04-01T03:01:11;12.30;;;3.63;;
65831;SDS011;52593;42.648;23.332;2023-04-01T03:03:37;11.00;;;3.43;;
65831;SDS011;52593;42.648;23.332;2023-04-01T03:06:09;9.60;;;3.77;;
65831;SDS011;52593;42.648;23.332;2023-04-01T03:08:37;11.98;;;3.47;;
65831;SDS011;52593;42.648;23.332;2023-04-01T03:11:03;10.65;;;3.65;;
65831;SDS011;52593;42.648;23.332;2023-04-01T03:13:28;10.38;;;3.60;;
65831;SDS011;52593;42.648;23.332;2023-04-01T03:15:54;11.83;;;3.60;;
65831;SDS011;52593;42.648;23.332;2023-04-01T03:18:19;8.30;;;3.43;;
65831;SDS011;52593;42.648;23.332;2023-04-01T03:20:45;8.75;;;3.70;;
65831;SDS011;52593;42.648;23.332;2023-04-01T03:23:11;15.00;;;3.83;;
65831;SDS011;52593;42.648;23.332;2023-04-01T03:25:37;15.05;;;4.10;;
65831;SDS011;52593;42.648;23.332;2023-04-01T03:28:02;11.27;;;3.90;;
65831;SDS011;52593;42.648;23.332;2023-04-01T03:30:28;12.05;;;3.90;;
65831;SDS011;52593;42.648;23.332;2023-04-01T03:32:56;10.60;;;3.80;;
65831;SDS011;52593;42.648;23.332;2023-04-01T03:35:27;12.18;;;4.10;;
65831;SDS011;52593;42.648;23.332;2023-04-01T03:37:52;10.98;;;3.63;;
65831;SDS011;52593;42.648;23.332;2023-04-01T03:40:18;9.88;;;4.20;;
65831;SDS011;52593;42.648;23.332;2023-04-01T03:42:45;11.37;;;3.90;;
65831;SDS011;52593;42.648;23.332;2023-04-01T03:45:10;10.30;;;4.22;;
65831;SDS011;52593;42.648;23.332;2023-04-01T03:47:39;12.23;;;4.03;;
65831;SDS011;52593;42.648;23.332;2023-04-01T03:50:05;10.40;;;4.07;;
65831;SDS011;52593;42.648;23.332;2023-04-01T03:52:32;12.02;;;4.15;;
65831;SDS011;52593;42.648;23.332;2023-04-01T03:54:57;9.52;;;4.60;;
65831;SDS011;52593;42.648;23.332;2023-04-01T03:57:23;12.40;;;5.60;;
65831;SDS011;52593;42.648;23.332;2023-04-01T03:59:48;11.87;;;4.03;;
65831;SDS011;52593;42.648;23.332;2023-04-01T04:02:14;9.07;;;3.00;;
65831;SDS011;52593;42.648;23.332;2023-04-01T04:04:39;11.85;;;3.35;;
65831;SDS011;52593;42.648;23.332;2023-04-01T04:07:05;10.13;;;3.20;;
65831;SDS011;52593;42.648;23.332;2023-04-01T04:09:31;10.52;;;3.13;;
65831;SDS011;52593;42.648;23.332;2023-04-01T04:11:57;8.37;;;3.23;;
65831;SDS011;52593;42.648;23.332;2023-04-01T04:14:22;9.67;;;2.60;;
65831;SDS011;52593;42.648;23.332;2023-04-01T04:16:48;12.23;;;3.23;;
65831;SDS011;52593;42.648;23.332;2023-04-01T04:19:14;10.32;;;3.47;;
65831;SDS011;52593;42.648;23.332;2023-04-01T04:21:40;9.30;;;3.53;;
65831;SDS011;52593;42.648;23.332;2023-04-01T04:24:06;15.23;;;3.67;;
65831;SDS011;52593;42.648;23.332;2023-04-01T04:26:31;11.43;;;3.93;;
65831;SDS011;52593;42.648;23.332;2023-04-01T04:28:57;11.50;;;4.10;;
65831;SDS011;52593;42.648;23.332;2023-04-01T04:31:23;11.18;;;4.25;;
65831;SDS011;52593;42.648;23.332;2023-04-01T04:33:50;14.52;;;4.15;;
65831;SDS011;52593;42.648;23.332;2023-04-01T04:36:16;13.63;;;4.17;;
65831;SDS011;52593;42.648;23.332;2023-04-01T04:38:42;13.95;;;4.28;;
65831;SDS011;52593;42.648;23.332;2023-04-01T04:41:17;10.70;;;4.17;;
65831;SDS011;52593;42.648;23.332;2023-04-01T04:43:48;13.23;;;4.43;;
65831;SDS011;52593;42.648;23.332;2023-04-01T04:46:21;10.93;;;4.43;;
65831;SDS011;52593;42.648;23.332;2023-04-01T04:48:47;11.13;;;3.88;;
65831;SDS011;52593;42.648;23.332;2023-04-01T04:51:16;10.73;;;4.27;;
65831;SDS011;52593;42.648;23.332;2023-04-01T04:53:43;10.70;;;4.17;;
65831;SDS011;52593;42.648;23.332;2023-04-01T04:56:09;9.35;;;3.90;;
65831;SDS011;52593;42.648;23.332;2023-04-01T04:58:34;15.30;;;5.33;;
65831;SDS011;52593;42.648;23.332;2023-04-01T05:01:05;14.38;;;5.00;;
65831;SDS011;52593;42.648;23.332;2023-04-01T05:03:32;12.13;;;5.47;;
65831;SDS011;52593;42.648;23.332;2023-04-01T05:05:57;13.57;;;5.10;;
65831;SDS011;52593;42.648;23.332;2023-04-01T05:08:22;15.40;;;5.33;;
65831;SDS011;52593;42.648;23.332;2023-04-01T05:10:48;12.80;;;5.10;;
65831;SDS011;52593;42.648;23.332;2023-04-01T05:13:13;14.70;;;5.30;;
65831;SDS011;52593;42.648;23.332;2023-04-01T05:15:38;14.00;;;5.23;;
65831;SDS011;52593;42.648;23.332;2023-04-01T05:18:04;13.80;;;5.60;;
65831;SDS011;52593;42.648;23.332;2023-04-01T05:20:29;13.07;;;5.37;;
65831;SDS011;52593;42.648;23.332;2023-04-01T05:22:55;15.13;;;5.60;;
65831;SDS011;52593;42.648;23.332;2023-04-01T05:25:21;14.60;;;6.23;;
65831;SDS011;52593;42.648;23.332;2023-04-01T05:27:47;16.53;;;6.87;;
65831;SDS011;52593;42.648;23.332;2023-04-01T05:30:12;17.40;;;7.10;;
65831;SDS011;52593;42.648;23.332;2023-04-01T05:32:37;21.13;;;6.67;;
65831;SDS011;52593;42.648;23.332;2023-04-01T05:35:03;21.03;;;6.90;;
65831;SDS011;52593;42.648;23.332;2023-04-01T05:37:29;22.35;;;7.22;;
65831;SDS011;52593;42.648;23.332;2023-04-01T05:39:54;18.07;;;7.00;;
65831;SDS011;52593;42.648;23.332;2023-04-01T05:42:20;14.00;;;5.47;;
65831;SDS011;52593;42.648;23.332;2023-04-01T05:44:45;17.23;;;5.57;;
65831;SDS011;52593;42.648;23.332;2023-04-01T05:47:11;15.97;;;5.77;;
65831;SDS011;52593;42.648;23.332;2023-04-01T05:49:36;16.47;;;5.97;;
65831;SDS011;52593;42.648;23.332;2023-04-01T05:52:01;13.77;;;5.50;;
65831;SDS011;52593;42.648;23.332;2023-04-01T05:54:27;12.83;;;5.33;;
65831;SDS011;52593;42.648;23.332;2023-04-01T05:56:52;13.10;;;4.83;;
65831;SDS011;52593;42.648;23.332;2023-04-01T05:59:17;13.07;;;4.67;;
65831;SDS011;52593;42.648;23.332;2023-04-01T06:01:43;14.17;;;5.10;;
65831;SDS011;52593;42.648;23.332;2023-04-01T06:04:14;12.70;;;4.82;;
65831;SDS011;52593;42.648;23.332;2023-04-01T06:06:41;14.20;;;4.40;;
65831;SDS011;52593;42.648;23.332;2023-04-01T06:09:12;13.07;;;3.92;;
65831;SDS011;52593;42.648;23.332;2023-04-01T06:25:49;12.75;;;3.50;;
65831;SDS011;52593;42.648;23.332;2023-04-01T06:36:53;9.63;;;3.20;;
65831;SDS011;52593;42.648;23.332;2023-04-01T06:47:39;11.48;;;3.30;;
65831;SDS011;52593;42.648;23.332;2023-04-01T06:50:43;12.10;;;3.53;;
65831;SDS011;52593;42.648;23.332;2023-04-01T06:55:55;10.73;;;4.05;;
65831;SDS011;52593;42.648;23.332;2023-04-01T06:58:26;12.60;;;4.83;;
65831;SDS011;52593;42.648;23.332;2023-04-01T07:00:58;16.52;;;5.30;;
65831;SDS011;52593;42.648;23.332;2023-04-01T07:03:41;15.98;;;5.93;;
65831;SDS011;52593;42.648;23.332;2023-04-01T07:06:14;14.48;;;5.68;;
65831;SDS011;52593;42.648;23.332;2023-04-01T07:08:48;13.07;;;5.43;;
65831;SDS011;52593;42.648;23.332;2023-04-01T07:11:22;11.27;;;5.30;;
65831;SDS011;52593;42.648;23.332;2023-04-01T07:14:01;17.45;;;5.63;;
65831;SDS011;52593;42.648;23.332;2023-04-01T07:16:43;15.20;;;5.30;;
65831;SDS011;52593;42.648;23.332;2023-04-01T07:22:09;11.57;;;4.70;;
65831;SDS011;52593;42.648;23.332;2023-04-01T07:24:39;14.77;;;4.53;;
65831;SDS011;52593;42.648;23.332;2023-04-01T07:27:11;13.50;;;4.38;;
65831;SDS011;52593;42.648;23.332;2023-04-01T07:29:37;10.45;;;4.18;;
65831;SDS011;52593;42.648;23.332;2023-04-01T07:49:04;12.60;;;3.83;;
65831;SDS011;52593;42.648;23.332;2023-04-01T07:51:48;11.23;;;4.13;;
65831;SDS011;52593;42.648;23.332;2023-04-01T07:57:23;10.98;;;4.35;;
65831;SDS011;52593;42.648;23.332;2023-04-01T08:02:54;10.17;;;4.10;;
65831;SDS011;52593;42.648;23.332;2023-04-01T08:16:50;11.90;;;4.20;;
65831;SDS011;52593;42.648;23.332;2023-04-01T08:22:04;12.10;;;4.80;;
65831;SDS011;52593;42.648;23.332;2023-04-01T08:24:41;11.88;;;4.30;;
65831;SDS011;52593;42.648;23.332;2023-04-01T08:27:21;12.82;;;4.40;;
65831;SDS011;52593;42.648;23.332;2023-04-01T08:29:59;12.90;;;4.80;;
65831;SDS011;52593;42.648;23.332;2023-04-01T08:32:36;13.27;;;4.88;;
65831;SDS011;52593;42.648;23.332;2023-04-01T08:41:15;9.85;;;3.67;;
65831;SDS011;52593;42.648;23.332;2023-04-01T08:43:59;11.23;;;3.80;;
65831;SDS011;52593;42.648;23.332;2023-04-01T08:49:37;12.00;;;3.75;;
65831;SDS011;52593;42.648;23.332;2023-04-01T08:58:00;9.40;;;3.60;;
65831;SDS011;52593;42.648;23.332;2023-04-01T09:00:46;9.88;;;3.17;;
65831;SDS011;52593;42.648;23.332;2023-04-01T09:03:52;9.88;;;3.90;;
65831;SDS011;52593;42.648;23.332;2023-04-01T09:06:47;8.30;;;3.63;;
65831;SDS011;52593;42.648;23.332;2023-04-01T09:09:40;11.68;;;3.25;;
65831;SDS011;52593;42.648;23.332;2023-04-01T09:12:28;10.53;;;3.20;;
65831;SDS011;52593;42.648;23.332;2023-04-01T09:15:25;9.38;;;3.30;;
65831;SDS011;52593;42.648;23.332;2023-04-01T09:21:09;13.70;;;3.50;;
65831;SDS011;52593;42.648;23.332;2023-04-01T09:45:13;11.98;;;2.50;;
65831;SDS011;52593;42.648;23.332;2023-04-01T09:47:43;11.20;;;2.55;;
65831;SDS011;52593;42.648;23.332;2023-04-01T09:55:56;10.95;;;2.88;;
65831;SDS011;52593;42.648;23.332;2023-04-01T09:59:04;8.75;;;3.20;;
65831;SDS011;52593;42.648;23.332;2023-04-01T10:24:01;6.95;;;2.55;;
65831;SDS011;52593;42.648;23.332;2023-04-01T10:32:21;9.05;;;3.15;;
65831;SDS011;52593;42.648;23.332;2023-04-01T10:38:19;8.32;;;2.80;;
65831;SDS011;52593;42.648;23.332;2023-04-01T10:57:13;8.30;;;2.35;;
65831;SDS011;52593;42.648;23.332;2023-04-01T11:20:52;7.78;;;1.88;;
65831;SDS011;52593;42.648;23.332;2023-04-01T11:45:15;7.83;;;1.90;;
65831;SDS011;52593;42.648;23.332;2023-04-01T11:53:31;10.05;;;2.28;;
65831;SDS011;52593;42.648;23.332;2023-04-01T11:56:05;11.32;;;2.40;;
65831;SDS011;52593;42.648;23.332;2023-04-01T12:01:58;5.90;;;1.70;;
65831;SDS011;52593;42.648;23.332;2023-04-01T12:04:38;11.93;;;2.53;;
65831;SDS011;52593;42.648;23.332;2023-04-01T12:17:57;9.05;;;2.65;;
65831;SDS011;52593;42.648;23.332;2023-04-01T12:23:35;8.40;;;3.15;;
65831;SDS011;52593;42.648;23.332;2023-04-01T12:28:59;5.32;;;2.28;;
65831;SDS011;52593;42.648;23.332;2023-04-01T12:31:38;6.25;;;2.30;;
65831;SDS011;52593;42.648;23.332;2023-04-01T12:39:47;9.07;;;2.17;;
65831;SDS011;52593;42.648;23.332;2023-04-01T12:42:33;7.72;;;2.65;;
65831;SDS011;52593;42.648;23.332;2023-04-01T13:02:03;10.60;;;3.92;;
65831;SDS011;52593;42.648;23.332;2023-04-01T13:12:52;8.50;;;3.63;;
65831;SDS011;52593;42.648;23.332;2023-04-01T13:15:54;8.20;;;3.58;;
65831;SDS011;52593;42.648;23.332;2023-04-01T13:26:21;9.95;;;3.25;;
65831;SDS011;52593;42.648;23.332;2023-04-01T13:31:55;8.40;;;3.63;;
65831;SDS011;52593;42.648;23.332;2023-04-01T13:43:04;6.75;;;2.30;;
65831;SDS011;52593;42.648;23.332;2023-04-01T13:59:56;5.85;;;1.95;;
65831;SDS011;52593;42.648;23.332;2023-04-01T14:04:56;6.60;;;1.80;;
65831;SDS011;52593;42.648;23.332;2023-04-01T14:10:07;4.32;;;1.25;;
65831;SDS011;52593;42.648;23.332;2023-04-01T14:26:30;5.53;;;1.10;;
65831;SDS011;52593;42.648;23.332;2023-04-01T14:45:19;9.70;;;3.33;;
65831;SDS011;52593;42.648;23.332;2023-04-01T14:50:49;10.43;;;4.18;;
65831;SDS011;52593;42.648;23.332;2023-04-01T14:58:21;8.23;;;3.30;;
65831;SDS011;52593;42.648;23.332;2023-04-01T15:03:51;9.45;;;3.65;;
65831;SDS011;52593;42.648;23.332;2023-04-01T15:06:37;7.22;;;2.60;;
65831;SDS011;52593;42.648;23.332;2023-04-01T15:14:36;8.67;;;2.70;;
65831;SDS011;52593;42.648;23.332;2023-04-01T15:23:06;8.73;;;2.72;;
65831;SDS011;52593;42.648;23.332;2023-04-01T15:28:28;9.10;;;2.70;;
65831;SDS011;52593;42.648;23.332;2023-04-01T15:31:01;7.32;;;2.70;;
65831;SDS011;52593;42.648;23.332;2023-04-01T15:33:35;8.25;;;3.13;;
65831;SDS011;52593;42.648;23.332;2023-04-01T15:38:53;8.32;;;3.47;;
65831;SDS011;52593;42.648;23.332;2023-04-01T15:47:34;10.02;;;3.30;;
65831;SDS011;52593;42.648;23.332;2023-04-01T16:04:06;4.70;;;1.30;;
65831;SDS011;52593;42.648;23.332;2023-04-01T16:06:48;4.38;;;0.95;;
65831;SDS011;52593;42.648;23.332;2023-04-01T16:11:55;4.67;;;1.33;;
65831;SDS011;52593;42.648;23.332;2023-04-01T16:17:29;4.13;;;1.00;;
65831;SDS011;52593;42.648;23.332;2023-04-01T16:22:41;12.13;;;1.40;;
65831;SDS011;52593;42.648;23.332;2023-04-01T16:28:23;5.27;;;1.97;;
65831;SDS011;52593;42.648;23.332;2023-04-01T16:31:36;4.88;;;1.48;;
65831;SDS011;52593;42.648;23.332;2023-04-01T16:36:46;4.10;;;1.00;;
65831;SDS011;52593;42.648;23.332;2023-04-01T16:42:16;4.27;;;1.20;;
65831;SDS011;52593;42.648;23.332;2023-04-01T16:44:54;5.47;;;1.52;;
65831;SDS011;52593;42.648;23.332;2023-04-01T16:47:30;3.00;;;0.90;;
65831;SDS011;52593;42.648;23.332;2023-04-01T16:52:53;3.58;;;0.93;;
65831;SDS011;52593;42.648;23.332;2023-04-01T16:55:35;3.30;;;0.83;;
65831;SDS011;52593;42.648;23.332;2023-04-01T16:58:06;3.50;;;0.80;;
65831;SDS011;52593;42.648;23.332;2023-04-01T17:00:41;3.25;;;0.90;;
65831;SDS011;52593;42.648;23.332;2023-04-01T17:03:22;3.83;;;0.90;;
65831;SDS011;52593;42.648;23.332;2023-04-01T17:14:38;3.55;;;0.60;;
65831;SDS011;52593;42.648;23.332;2023-04-01T17:17:49;2.50;;;0.50;;
65831;SDS011;52593;42.648;23.332;2023-04-01T17:28:58;3.70;;;1.00;;
65831;SDS011;52593;42.648;23.332;2023-04-01T17:37:22;3.77;;;1.00;;
65831;SDS011;52593;42.648;23.332;2023-04-01T17:42:54;3.78;;;1.25;;
65831;SDS011;52593;42.648;23.332;2023-04-01T17:45:30;3.60;;;1.17;;
65831;SDS011;52593;42.648;23.332;2023-04-01T17:48:15;3.47;;;1.10;;
65831;SDS011;52593;42.648;23.332;2023-04-01T17:51:02;3.77;;;1.30;;
65831;SDS011;52593;42.648;23.332;2023-04-01T17:59:53;4.60;;;1.48;;
65831;SDS011;52593;42.648;23.332;2023-04-01T18:16:43;4.60;;;1.00;;
65831;SDS011;52593;42.648;23.332;2023-04-01T18:22:19;4.80;;;1.50;;
65831;SDS011;52593;42.648;23.332;2023-04-01T18:24:54;4.60;;;1.50;;
65831;SDS011;52593;42.648;23.332;2023-04-01T18:27:37;4.47;;;1.70;;
65831;SDS011;52593;42.648;23.332;2023-04-01T18:30:17;4.90;;;1.63;;
65831;SDS011;52593;42.648;23.332;2023-04-01T18:32:51;4.63;;;1.73;;
65831;SDS011;52593;42.648;23.332;2023-04-01T18:35:34;4.97;;;1.88;;
65831;SDS011;52593;42.648;23.332;2023-04-01T18:38:16;5.78;;;2.35;;
65831;SDS011;52593;42.648;23.332;2023-04-01T18:40:48;6.57;;;2.55;;
65831;SDS011;52593;42.648;23.332;2023-04-01T18:48:48;4.95;;;1.88;;
65831;SDS011;52593;42.648;23.332;2023-04-01T18:52:41;4.18;;;1.38;;
65831;SDS011;52593;42.648;23.332;2023-04-01T18:54:42;6.80;;;1.63;;
65831;SDS011;52593;42.648;23.332;2023-04-01T18:57:16;4.50;;;1.30;;
65831;SDS011;52593;42.648;23.332;2023-04-01T19:07:50;6.00;;;1.70;;
65831;SDS011;52593;42.648;23.332;2023-04-01T19:20:59;6.13;;;2.15;;
65831;SDS011;52593;42.648;23.332;2023-04-01T19:23:51;6.30;;;2.40;;
65831;SDS011;52593;42.648;23.332;2023-04-01T19:34:49;3.90;;;1.52;;
65831;SDS011;52593;42.648;23.332;2023-04-01T19:37:44;3.95;;;1.50;;
65831;SDS011;52593;42.648;23.332;2023-04-01T19:42:59;3.60;;;1.23;;
65831;SDS011;52593;42.648;23.332;2023-04-01T19:50:53;4.28;;;1.63;;
65831;SDS011;52593;42.648;23.332;2023-04-01T19:53:58;4.67;;;1.43;;
65831;SDS011;52593;42.648;23.332;2023-04-01T20:01:37;4.63;;;1.70;;
65831;SDS011;52593;42.648;23.332;2023-04-01T20:04:28;4.13;;;1.40;;
65831;SDS011;52593;42.648;23.332;2023-04-01T20:09:47;4.40;;;1.17;;
65831;SDS011;52593;42.648;23.332;2023-04-01T20:14:50;3.58;;;0.98;;
65831;SDS011;52593;42.648;23.332;2023-04-01T20:24:53;4.45;;;1.23;;
65831;SDS011;52593;42.648;23.332;2023-04-01T20:27:26;4.25;;;1.20;;
65831;SDS011;52593;42.648;23.332;2023-04-01T20:35:43;3.80;;;1.10;;
65831;SDS011;52593;42.648;23.332;2023-04-01T20:41:20;3.15;;;1.08;;
65831;SDS011;52593;42.648;23.332;2023-04-01T20:44:13;3.20;;;0.90;;
65831;SDS011;52593;42.648;23.332;2023-04-01T20:49:29;3.73;;;1.20;;
65831;SDS011;52593;42.648;23.332;2023-04-01T20:54:26;4.40;;;1.60;;
65831;SDS011;52593;42.648;23.332;2023-04-01T20:57:05;3.22;;;0.93;;
65831;SDS011;52593;42.648;23.332;2023-04-01T21:10:43;4.78;;;1.45;;
65831;SDS011;52593;42.648;23.332;2023-04-01T21:18:49;4.50;;;1.13;;
65831;SDS011;52593;42.648;23.332;2023-04-01T21:21:31;3.10;;;0.90;;
65831;SDS011;52593;42.648;23.332;2023-04-01T21:24:50;3.30;;;0.90;;
65831;SDS011;52593;42.648;23.332;2023-04-01T21:27:24;2.60;;;0.75;;
65831;SDS011;52593;42.648;23.332;2023-04-01T21:52:44;2.75;;;0.70;;
65831;SDS011;52593;42.648;23.332;2023-04-01T22:06:21;2.13;;;0.60;;
65831;SDS011;52593;42.648;23.332;2023-04-01T22:08:53;2.35;;;0.60;;
65831;SDS011;52593;42.648;23.332;2023-04-01T22:14:14;3.53;;;0.80;;
65831;SDS011;52593;42.648;23.332;2023-04-01T22:17:00;3.40;;;0.93;;
65831;SDS011;52593;42.648;23.332;2023-04-01T22:22:23;3.10;;;0.77;;
65831;SDS011;52593;42.648;23.332;2023-04-01T22:27:42;2.30;;;0.50;;
65831;SDS011;52593;42.648;23.332;2023-04-01T22:30:23;2.90;;;0.60;;
65831;SDS011;52593;42.648;23.332;2023-04-01T22:35:49;3.08;;;0.80;;
65831;SDS011;52593;42.648;23.332;2023-04-01T22:41:14;2.90;;;0.60;;
65831;SDS011;52593;42.648;23.332;2023-04-01T22:43:54;2.80;;;0.70;;
65831;SDS011;52593;42.648;23.332;2023-04-01T22:51:47;2.78;;;0.57;;
65831;SDS011;52593;42.648;23.332;2023-04-01T22:57:12;3.33;;;0.60;;
65831;SDS011;52593;42.648;23.332;2023-04-01T23:04:51;2.60;;;0.60;;
65831;SDS011;52593;42.648;23.332;2023-04-01T23:07:28;2.72;;;0.50;;
65831;SDS011;52593;42.648;23.332;2023-04-01T23:09:56;3.27;;;0.50;;
65831;SDS011;52593;42.648;23.332;2023-04-01T23:12:25;3.20;;;0.50;;
65831;SDS011;52593;42.648;23.332;2023-04-01T23:14:52;2.53;;;0.50;;
65831;SDS011;52593;42.648;23.332;2023-04-01T23:17:30;2.38;;;0.60;;
65831;SDS011;52593;42.648;23.332;2023-04-01T23:31:09;2.80;;;0.50;;
65831;SDS011;52593;42.648;23.332;2023-04-01T23:33:53;2.78;;;0.40;;
65831;SDS011;52593;42.648;23.332;2023-04-01T23:36:20;3.97;;;0.50;;
65831;SDS011;52593;42.648;23.332;2023-04-01T23:38:47;2.50;;;0.50;;
65831;SDS011;52593;42.648;23.332;2023-04-01T23:41:25;2.03;;;0.50;;
65831;SDS011;52593;42.648;23.332;2023-04-01T23:46:44;2.28;;;0.47;;
65831;SDS011;52593;42.648;23.332;2023-04-01T23:49:17;2.43;;;0.33;;
65831;SDS011;52593;42.648;23.332;2023-04-01T23:51:53;1.40;;;0.30;;
65831;SDS011;52593;42.648;23.332;2023-04-01T23:54:42;1.92;;;0.40;;
65831;SDS011;52593;42.648;23.332;2023-04-01T23:57:13;3.38;;;0.60;;
65831;SDS011;52593;42.648;23.332;2023-04-01T23:59:43;2.00;;;0.40;;
